x

Santa Monica Basin - 33nm Wsw Of Santa Monica, Ca (46025) Weather Station

2:20pm - Sat 22nd Jul 2017 All times are PDT. -7 hours from GMT.

  • Wind
    9mph, 11mph gusts
  • Sea Temp 71°f
  • Sea Pressure 1012.5mb
  • Santa Monica Basin - 33nm Wsw Of Santa Monica, Ca
  • Santa Monica Basin - 33nm Wsw Of Santa Monica, Ca

More Historic Weather Station data

Upgrade to MSW Pro to gain access to the past 30 days of data for over 8000 Wavebouys and Weather Stations around the globe.

Join Pro

Comparision Forecast

View Surf forecast
   
Sat 07/22 2:20pm  -   -   -  9 11 mph 1012.5mb 71f
2:10pm  -   -   -  9 11 mph 1012.6mb 71f
2:00pm  -   -   -  9 11 mph 1012.8mb 71f
1:50pm 3ft 14s 6s 9 11 mph 1012.9mb 71f
1:40pm 3ft  -  6s 9 11 mph 1012.9mb 71f
1:30pm  -   -   -  9 11 mph 1013mb 71f
1:20pm  -   -   -  9 11 mph 1013.1mb 71f
1:10pm  -   -   -  9 11 mph 1013.1mb 71f
1:00pm  -   -   -  9 11 mph 1013.1mb 71f
12:50pm 3ft 8s 6s 9 11 mph 1013.3mb 71f
12:40pm  -   -   -  9 11 mph 1013.4mb 71f
12:30pm  -   -   -  9 11 mph 1013.5mb 70f
12:20pm  -   -   -  9 11 mph 1013.5mb 70f
12:10pm  -   -   -  9 11 mph 1013.5mb 71f
12:00pm  -   -   -  9 11 mph 1013.5mb 71f
11:50am 2.5ft 14s 6s 9 11 mph 1013.5mb 71f
11:40am 2.5ft  -  6s 7 9 mph 1013.5mb 71f
11:30am  -   -   -  4 9 mph 1013.5mb 71f
11:20am  -   -   -  2 4 mph 1013.5mb 71f
11:10am  -   -   -  2 4 mph 1013.5mb 71f
11:00am  -   -   -  2 4 mph 1013.5mb 71f
10:50am 3ft 14s 6s 2 4 mph 1013.5mb 71f
10:40am  -   -   -  4 7 mph 1013.5mb 71f
10:30am  -   -   -  4 7 mph 1013.5mb 71f
10:20am  -   -   -  7 9 mph 1013.5mb 71f
10:10am  -   -   -  4 7 mph 1013.5mb 71f
10:00am  -   -   -  4 9 mph 1013.5mb 71f
9:50am 3ft 8s 6s 9 11 mph 1013.5mb 71f
9:40am 3ft  -  6s 7 13 mph 1013.5mb 71f
9:30am  -   -   -  11 13 mph 1013.5mb 71f
9:20am  -   -   -  9 11 mph 1013.5mb 71f
9:10am  -   -   -  9 13 mph 1013.4mb 71f
9:00am  -   -   -  7 11 mph 1013.4mb 71f
8:50am 3ft 14s 5s 9 13 mph 1013.3mb 71f
8:40am  -   -   -  9 13 mph 1013.1mb 71f
8:30am  -   -   -  9 13 mph 1013.1mb 71f
8:20am  -   -   -  9 13 mph 1013mb 71f
8:10am  -   -   -  9 11 mph 1013mb 71f
8:00am  -   -   -  9 13 mph 1012.9mb 71f
7:50am 3.5ft 13s 6s 9 13 mph 1012.9mb 71f
7:40am 3.5ft  -  6s 9 13 mph 1012.6mb 71f
7:30am  -   -   -  9 11 mph 1012.6mb 71f
7:20am  -   -   -  9 13 mph 1012.6mb 71f
7:10am  -   -   -  11 13 mph 1012.5mb 71f
7:00am  -   -   -  9 11 mph 1012.4mb 71f
6:50am 3.5ft 6s 6s 9 13 mph 1012.4mb 71f
6:40am  -   -   -  9 13 mph 1012.1mb 71f
6:30am  -   -   -  9 13 mph 1012mb 71f
6:20am  -   -   -  9 16 mph 1012mb 71f
6:10am  -   -   -  9 13 mph 1012mb 71f
6:00am  -   -   -  9 13 mph 1012mb -
5:50am 3.5ft 6s 6s 9 16 mph 1012mb 71f
5:40am 3.5ft  -  6s 11 16 mph 1012mb 71f
5:30am  -   -   -  11 13 mph 1012mb 71f
5:20am  -   -   -  11 13 mph 1011.9mb 71f
5:10am  -   -   -  9 13 mph 1012mb 71f
5:00am  -   -   -  9 13 mph 1011.9mb 71f
4:50am 4ft 7s 6s 9 13 mph 1012mb 71f
4:40am 4ft  -  6s 9 13 mph 1012mb 71f
4:30am  -   -   -  9 16 mph 1012mb 71f
4:20am  -   -   -  9 13 mph 1012mb 71f
4:10am  -   -   -  9 13 mph 1012mb 71f
4:00am  -   -   -  9 13 mph 1012mb 71f
3:50am 3.5ft 7s 6s 9 11 mph 1012mb 71f
3:40am 3.5ft  -  6s 7 11 mph 1012mb 71f
3:30am  -   -   -  7 11 mph 1012mb 71f
3:20am  -   -   -  7 9 mph 1012mb 71f
3:10am  -   -   -  7 9 mph 1012mb 71f
3:00am  -   -   -  7 11 mph 1012mb 71f
2:50am 3.5ft 7s 6s 7 9 mph 1012mb 71f
2:40am  -   -   -  7 9 mph 1012mb 71f
2:30am  -   -   -  4 7 mph 1012mb 71f
2:20am  -   -   -  2 4 mph 1012mb 71f
2:10am  -   -   -  2 2 mph 1012mb -
2:00am  -   -   -   -  2 mph 1012mb 71f
1:50am 3.5ft 7s 6s  -  2 mph 1012mb 71f
1:40am  -   -   -  2 4 mph 1012mb 71f
1:30am  -   -   -  2 4 mph 1012mb 71f
1:20am  -   -   -  2 2 mph 1012mb 71f
1:10am  -   -   -   -  2 mph 1012mb 71f
1:00am  -   -   -  2 2 mph 1011.9mb 71f
12:50am 3.5ft 14s 6s 2 4 mph 1012mb 71f
12:40am  -   -   -   -  4 mph 1011.9mb 71f
12:30am  -   -   -   -  2 mph 1012mb 70f
12:20am  -   -   -   -  2 mph 1012mb 70f
12:10am  -   -   -   -  0 mph 1011.9mb 70f
12:00am  -   -   -   -  0 mph 1011.9mb 70f
Fri 07/21 11:50pm 3.5ft 14s 6s  -  2 mph 1012mb 70f
11:40pm 3.5ft  -  6s  -  2 mph 1012mb 70f
11:30pm  -   -   -   -  2 mph 1012mb 70f
11:20pm  -   -   -  2 4 mph 1012mb 70f
11:10pm  -   -   -  4 4 mph 1012mb 70f
11:00pm  -   -   -  4 4 mph 1012mb 70f
10:50pm 3.5ft 15s 6s 2 4 mph 1012mb 70f
10:40pm 3.5ft  -  6s  -  2 mph 1011.9mb 70f
10:30pm  -   -   -  2 4 mph 1011.9mb 70f
10:20pm  -   -   -  2 4 mph 1012mb 70f
10:10pm  -   -   -  2 4 mph 1011.9mb 71f
10:00pm  -   -   -  4 7 mph 1011.8mb 71f
9:50pm 3.5ft 15s 6s 4 7 mph 1011.8mb 71f
9:40pm 3.5ft  -  6s 4 7 mph 1011.8mb 71f
9:30pm  -   -   -  7 9 mph 1011.5mb 71f
9:20pm  -   -   -  7 9 mph 1011.5mb 71f
9:10pm  -   -   -  7 9 mph 1011.5mb 71f
9:00pm  -   -   -  9 9 mph 1011.4mb 71f
8:50pm 3.5ft 9s 5s 9 11 mph 1011.4mb 71f
8:40pm  -   -   -  9 11 mph 1011.4mb 71f
8:30pm  -   -   -  9 11 mph 1011.3mb 71f
8:20pm  -   -   -  11 11 mph 1011.3mb 71f
8:10pm  -   -   -  11 13 mph 1011.3mb 71f
8:00pm  -   -   -  11 13 mph 1011.3mb 71f
7:50pm 3.5ft 15s 5s 11 13 mph 1011.3mb 71f
7:40pm  -   -   -  11 16 mph 1011.3mb 71f
7:30pm  -   -   -  13 16 mph 1011.1mb 70f
7:20pm  -   -   -  13 16 mph 1011.1mb 70f
7:10pm  -   -   -  13 16 mph 1011.3mb 70f
7:00pm  -   -   -  13 16 mph 1011.3mb 70f
6:50pm 3.5ft 15s 5s 13 16 mph 1011.3mb 70f
6:40pm 3.5ft  -  5s 13 16 mph 1011.4mb 70f
6:30pm  -   -   -  13 18 mph 1011.4mb 70f
6:20pm  -   -   -  13 16 mph 1011.5mb 70f
6:10pm  -   -   -  13 18 mph 1011.5mb 70f
6:00pm  -   -   -  13 18 mph 1011.5mb 71f
5:50pm 3.5ft 15s 5s 13 18 mph 1011.5mb 71f
5:40pm 3.5ft  -  5s 16 18 mph 1011.8mb 71f
5:30pm  -   -   -  13 18 mph 1011.8mb 71f
5:20pm  -   -   -  13 18 mph 1011.9mb 71f
5:10pm  -   -   -  13 18 mph 1012mb 71f
5:00pm  -   -   -  13 18 mph 1012.1mb -
4:50pm 3.5ft 14s 6s 13 18 mph 1012.3mb 71f
4:40pm 3.5ft  -  6s 13 18 mph 1012.4mb 71f
4:30pm  -   -   -  13 18 mph 1012.5mb 71f
4:20pm  -   -   -  13 16 mph 1012.6mb 71f
4:10pm  -   -   -  11 16 mph 1012.6mb 71f
4:00pm  -   -   -  11 13 mph 1012.9mb 71f
3:50pm 3ft 15s 6s 11 16 mph 1012.9mb 71f
3:40pm  -   -   -  11 16 mph 1012.9mb 71f
3:30pm  -   -   -  11 13 mph 1013mb 71f
3:20pm  -   -   -  11 13 mph 1013.3mb 71f
3:10pm  -   -   -  11 13 mph 1013.5mb 71f
3:00pm  -   -   -  11 13 mph 1013.5mb 71f
2:50pm 3ft 9s 6s 11 13 mph 1013.8mb 71f
2:40pm 3ft  -  6s 11 13 mph 1013.8mb 71f
2:30pm  -   -   -  11 16 mph 1013.9mb 71f
2:20pm  -   -   -  11 13 mph 1014mb 71f
2:10pm  -   -   -  11 13 mph 1014.3mb 71f
2:00pm  -   -   -  9 13 mph 1014.3mb 71f
1:50pm 3ft 15s 7s 9 11 mph 1014.4mb 71f
1:40pm 3ft  -  7s 9 11 mph 1014.5mb 71f
1:30pm  -   -   -  9 11 mph 1014.5mb 71f
1:20pm  -   -   -  9 11 mph 1014.8mb 71f
1:10pm  -   -   -  9 11 mph 1014.8mb 71f
1:00pm  -   -   -  9 11 mph 1014.9mb 71f
12:50pm 3ft 10s 7s 9 11 mph 1015mb 71f
12:40pm 3ft  -  7s 9 9 mph 1015mb 71f
12:30pm  -   -   -  9 11 mph 1015mb 71f
12:20pm  -   -   -  9 9 mph 1015.1mb 71f
12:10pm  -   -   -  9 11 mph 1015.1mb 71f
12:00pm  -   -   -  9 9 mph 1015.1mb 71f
11:50am 3ft 15s 6s 9 9 mph 1015.3mb 71f
11:40am 3ft  -  6s 7 9 mph 1015.3mb 71f
11:30am  -   -   -  7 9 mph 1015.3mb 71f
11:20am  -   -   -  7 9 mph 1015.3mb 71f
11:10am  -   -   -  7 11 mph 1015.1mb 71f
11:00am  -   -   -  7 9 mph 1015mb 71f
10:50am 3.5ft 9s 7s 4 7 mph 1015mb 71f
10:40am 3.5ft  -  7s 4 7 mph 1014.9mb 71f
10:30am  -   -   -  4 7 mph 1015mb 71f
10:20am  -   -   -  4 7 mph 1014.9mb 71f
10:10am  -   -   -  7 9 mph 1014.9mb 71f
10:00am  -   -   -  7 9 mph 1014.8mb 71f
9:50am 3ft 15s 6s 4 7 mph 1014.8mb 71f
9:40am 3ft  -  6s 4 7 mph 1014.8mb 71f
9:30am  -   -   -  4 7 mph 1014.6mb 71f
9:20am  -   -   -  4 7 mph 1014.5mb 71f
9:10am  -   -   -  4 7 mph 1014.5mb 71f
9:00am  -   -   -  4 7 mph 1014.5mb 71f
8:50am 3.5ft 10s 6s 2 7 mph 1014.5mb 71f
8:40am 3.5ft  -  6s 2 4 mph 1014.5mb 71f
8:30am  -   -   -  4 9 mph 1014.5mb 71f
8:20am  -   -   -  7 9 mph 1014.4mb 71f
8:10am  -   -   -  7 9 mph 1014.4mb 71f
8:00am  -   -   -  7 9 mph 1014.3mb 71f
7:50am 3.5ft 9s 6s 7 9 mph 1014.3mb 71f
7:40am 3.5ft  -  6s 7 9 mph 1014.1mb 71f
7:30am  -   -   -  7 11 mph 1014mb 71f
7:20am  -   -   -  9 13 mph 1014mb 71f
7:10am  -   -   -  9 13 mph 1014mb 71f
7:00am  -   -   -  9 13 mph 1013.9mb 71f
6:50am 4ft 15s 6s 7 13 mph 1013.9mb 71f
6:40am 4ft  -  6s 7 11 mph 1013.8mb -
6:30am  -   -   -  7 11 mph 1013.5mb 71f
6:20am  -   -   -  7 11 mph 1013.5mb 71f
6:10am  -   -   -  7 9 mph 1013.5mb 71f
6:00am  -   -   -  7 11 mph 1013.5mb 71f
5:50am 3.5ft 15s 6s 7 11 mph 1013.5mb 71f
5:40am 3.5ft  -  6s 9 13 mph 1013.3mb 71f
5:30am  -   -   -  9 11 mph 1013.1mb 71f
5:20am  -   -   -  9 11 mph 1013mb 71f
5:10am  -   -   -  9 11 mph 1013.1mb 71f
5:00am  -   -   -  9 13 mph 1013mb 71f
4:50am 4ft 15s 6s 11 16 mph 1013mb 71f
4:40am 4ft  -  6s 9 13 mph 1012.9mb 71f
4:30am  -   -   -  9 13 mph 1012.9mb 71f
4:20am  -   -   -  9 13 mph 1012.9mb 71f
4:10am  -   -   -  9 13 mph 1012.9mb 71f
4:00am  -   -   -  9 13 mph 1012.9mb 71f
3:50am 4.5ft 15s 6s 7 11 mph 1013mb 71f
3:40am 4.5ft  -  6s 9 13 mph 1013mb 71f
3:30am  -   -   -  9 11 mph 1013mb 71f
3:20am  -   -   -  9 11 mph 1013mb 71f
3:10am  -   -   -  7 11 mph 1013mb 71f
3:00am  -   -   -  7 9 mph 1013.1mb 71f
2:50am 4.5ft 7s 6s 7 9 mph 1013.1mb 71f
2:40am  -   -   -  7 9 mph 1013.1mb 71f
2:30am  -   -   -  7 9 mph 1013.1mb 71f
2:20am  -   -   -  7 9 mph 1013.1mb 71f
2:10am  -   -   -  7 9 mph 1013.1mb 71f
2:00am  -   -   -  7 9 mph 1013.1mb 71f
1:50am 4.5ft 15s 6s 9 9 mph 1013.1mb 71f
1:40am 4.5ft  -  6s 7 11 mph 1013.5mb 71f
1:30am  -   -   -  2 4 mph 1013.5mb 71f
1:20am  -   -   -   -  4 mph 1013.5mb 71f
1:10am  -   -   -   -  2 mph 1013.5mb 71f
1:00am  -   -   -   -  2 mph 1013.5mb 71f
12:50am 4.5ft 7s 6s  -  2 mph 1013.5mb 71f
12:40am 4.5ft  -  6s  -  2 mph 1013.6mb 71f
12:30am  -   -   -  2 4 mph 1013.6mb 71f
12:20am  -   -   -  4 4 mph 1013.8mb 71f
12:10am  -   -   -   -  4 mph 1013.8mb 71f
12:00am  -   -   -  2 4 mph 1013.6mb 71f
Thu 07/20 11:50pm 4.5ft 15s 6s 2 4 mph 1013.8mb 71f
11:40pm 4.5ft  -  6s 2 4 mph 1013.8mb 71f
11:30pm  -   -   -  2 4 mph 1013.8mb 71f
11:20pm  -   -   -  2 4 mph 1013.8mb 71f
11:10pm  -   -   -  2 4 mph 1013.6mb 71f
11:00pm  -   -   -  2 4 mph 1013.8mb 71f
10:50pm 4.5ft 15s 6s 2 4 mph 1013.8mb 71f
10:40pm 4.5ft  -  6s 2 7 mph 1013.8mb 72f
10:30pm  -   -   -   -  4 mph 1013.8mb 71f
10:20pm  -   -   -   -  0 mph 1013.9mb 71f
10:10pm  -   -   -   -  2 mph 1013.9mb 71f
10:00pm  -   -   -  2 2 mph 1013.8mb 71f
9:50pm 4ft 11s 6s 2 4 mph 1013.8mb 71f
9:40pm 4ft  -  6s 2 4 mph 1013.8mb 71f
9:30pm  -   -   -  2 4 mph 1013.8mb 71f
9:20pm  -   -   -  4 7 mph 1013.8mb 71f
9:10pm  -   -   -  4 7 mph 1013.6mb 71f
9:00pm  -   -   -  4 7 mph 1013.6mb 71f
8:50pm 4ft 15s 6s 4 7 mph 1013.5mb 71f
8:40pm  -   -   -  4 7 mph 1013.5mb 71f
8:30pm  -   -   -  7 9 mph 1013.5mb 71f
8:20pm  -   -   -  7 9 mph 1013.5mb 71f
8:10pm  -   -   -  7 9 mph 1013.5mb 71f
8:00pm  -   -   -  9 11 mph 1013.5mb 71f
7:50pm 3.5ft 11s 5s 9 11 mph 1013.4mb 71f
7:40pm 3.5ft  -  5s 11 13 mph 1013.4mb 71f
7:30pm  -   -   -  11 13 mph 1013.4mb 71f
7:20pm  -   -   -  11 13 mph 1013.3mb 71f
7:10pm  -   -   -  9 11 mph 1013.3mb 71f
7:00pm  -   -   -  9 11 mph 1013.3mb 71f
6:50pm 3.5ft 15s 5s 11 13 mph 1013.1mb 71f
6:40pm  -   -   -  11 16 mph 1013.1mb 71f
6:30pm  -   -   -  13 16 mph 1013mb 71f
6:20pm  -   -   -  13 16 mph 1013.1mb 71f
6:10pm  -   -   -  13 16 mph 1013.1mb 71f
6:00pm  -   -   -  13 16 mph 1013.1mb 71f
5:50pm 3.5ft 15s 6s 13 16 mph 1013.1mb 71f
5:40pm  -   -   -  13 16 mph 1013.1mb 71f
5:30pm  -   -   -  16 18 mph 1013.1mb 71f
5:20pm  -   -   -  13 18 mph 1013.3mb 71f
5:10pm  -   -   -  13 18 mph 1013.4mb 71f
5:00pm  -   -   -  13 16 mph 1013.5mb 71f
4:50pm 3.5ft 15s 6s 13 18 mph 1013.5mb 71f
4:40pm 3.5ft  -  6s 13 18 mph 1013.6mb 71f
4:30pm  -   -   -  13 16 mph 1013.9mb 71f
4:20pm  -   -   -  13 18 mph 1014mb 72f
4:10pm  -   -   -  13 16 mph 1014mb 72f
4:00pm  -   -   -  13 16 mph 1014.3mb 72f
3:50pm 3.5ft 10s 6s 13 18 mph 1014.5mb 72f
3:40pm  -   -   -  13 16 mph 1014.6mb 72f
3:30pm  -   -   -  11 16 mph 1014.8mb 72f
3:20pm  -   -   -  11 16 mph 1015mb 72f
3:10pm  -   -   -  9 13 mph 1015mb 72f
3:00pm  -   -   -  9 11 mph 1015.3mb 72f
2:50pm 3.5ft 16s 7s 9 11 mph 1015.3mb 73f
2:40pm  -   -   -  9 11 mph 1015.3mb 72f
2:30pm  -   -   -  9 9 mph 1015.4mb 72f
2:20pm  -   -   -  9 11 mph 1015.5mb 71f
2:10pm  -   -   -  7 11 mph 1015.5mb 71f
2:00pm  -   -   -  7 9 mph 1015.6mb 71f
1:50pm 3.5ft 9s 8s 4 7 mph 1015.6mb 71f
1:40pm  -   -   -  4 7 mph 1015.6mb 71f
1:30pm  -   -   -  4 9 mph 1015.8mb 71f
1:20pm  -   -   -  4 9 mph 1015.9mb 71f
1:10pm  -   -   -  4 7 mph 1016mb 71f
1:00pm  -   -   -  2 7 mph 1016mb 71f
12:50pm 3.5ft 15s 7s 2 4 mph 1016mb 71f
12:40pm  -   -   -  2 4 mph 1016.1mb 71f
12:30pm  -   -   -   -  4 mph 1016.4mb 71f
12:20pm  -   -   -   -  4 mph 1016.4mb 71f
12:10pm  -   -   -   -  0 mph 1016.4mb 71f
12:00pm  -   -   -   -  4 mph 1016.5mb 71f
11:50am 3.5ft 16s 7s 2 4 mph 1016.5mb 71f
11:40am  -   -   -   -  4 mph 1016.5mb 71f
11:30am  -   -   -   -  2 mph 1016.5mb 71f
11:20am  -   -   -   -  2 mph 1016.5mb 71f
11:10am  -   -   -   -  2 mph 1016.6mb 71f
11:00am  -   -   -  2 4 mph 1016.6mb 71f
10:50am 3.5ft 16s 7s 2 2 mph 1016.6mb 71f
10:40am  -   -   -  2 4 mph 1016.6mb 71f
10:30am  -   -   -   -  4 mph 1016.6mb 71f
10:20am  -   -   -   -  2 mph 1016.6mb 71f
10:10am  -   -   -   -  2 mph 1016.6mb 71f
10:00am  -   -   -  2 4 mph 1016.5mb 71f
9:50am 3.5ft 10s 7s 2 2 mph 1016.5mb 71f
9:40am  -   -   -  2 4 mph 1016.5mb 71f
9:30am  -   -   -  2 4 mph 1016.4mb 71f
9:20am  -   -   -  4 4 mph 1016.4mb 71f
9:10am  -   -   -  4 7 mph 1016.4mb 71f
9:00am  -   -   -  2 4 mph 1016.3mb 71f
8:50am 3.5ft 10s 7s 4 7 mph 1016.3mb 71f
8:40am  -   -   -  4 9 mph 1016.1mb 71f
8:30am  -   -   -  4 9 mph 1016.1mb 71f
8:20am  -   -   -  7 9 mph 1016mb 71f
8:10am  -   -   -  7 11 mph 1015.9mb 71f
8:00am  -   -   -  7 11 mph 1015.9mb 71f
7:50am 4ft 10s 7s 7 11 mph 1015.9mb 71f
7:40am  -   -   -  4 9 mph 1015.8mb 71f
7:30am  -   -   -  9 13 mph 1015.6mb 71f
7:20am  -   -   -  7 9 mph 1015.5mb 71f
7:10am  -   -   -  7 9 mph 1015.5mb 71f
7:00am  -   -   -  7 11 mph 1015.5mb 71f
6:50am 4ft 6s 6s 7 11 mph 1015.5mb 71f
6:40am 4ft  -  6s 7 11 mph 1015.4mb 71f
6:30am  -   -   -  7 9 mph 1015.1mb 71f
6:20am  -   -   -  7 11 mph 1015.1mb 71f
6:10am  -   -   -  7 9 mph 1015mb 71f
6:00am  -   -   -  7 11 mph 1015mb 71f
5:50am 4.5ft 16s 7s 4 9 mph 1015mb 71f
5:40am 4.5ft  -  7s 4 9 mph 1014.9mb 71f
5:30am  -   -   -  7 9 mph 1014.9mb 71f
5:20am  -   -   -  7 9 mph 1014.8mb 71f
5:10am  -   -   -  7 11 mph 1014.6mb 71f
5:00am  -   -   -  7 11 mph 1014.6mb 71f
4:50am 4.5ft 16s 6s 7 11 mph 1014.5mb 71f
4:40am 4.5ft  -  6s 9 13 mph 1014.8mb 71f
4:30am  -   -   -  7 11 mph 1014.5mb 71f
4:20am  -   -   -  9 11 mph 1014.5mb 71f
4:10am  -   -   -  9 11 mph 1014.5mb 71f
4:00am  -   -   -  7 11 mph 1014.5mb 71f
3:50am 4ft 7s 6s 7 9 mph 1014.5mb 71f
3:40am 4ft  -  6s 7 9 mph 1014.4mb 71f
3:30am  -   -   -  7 9 mph 1014.4mb 71f
3:20am  -   -   -  7 9 mph 1014.3mb 71f
3:10am  -   -   -  4 7 mph 1014.4mb 71f
3:00am  -   -   -  4 7 mph 1014.3mb -
2:50am 4.5ft 11s 6s 4 7 mph 1014.3mb 71f
2:40am 4.5ft  -  6s 4 7 mph 1014.3mb 71f
2:30am  -   -   -  4 7 mph 1014.3mb 71f
2:20am  -   -   -  4 7 mph 1014.3mb 71f
2:10am  -   -   -  4 7 mph 1014.3mb 71f
2:00am  -   -   -  4 7 mph 1014.3mb 70f
1:50am 4ft 11s 6s 4 4 mph 1014.3mb 70f
1:40am 4ft  -  6s 2 4 mph 1014.3mb 70f
1:30am  -   -   -   -  2 mph 1014.5mb 70f
1:20am  -   -   -  2 4 mph 1014.5mb 70f
1:10am  -   -   -   -  2 mph 1014.5mb 70f
1:00am  -   -   -  2 4 mph 1014.5mb 70f
12:50am 4ft 11s 7s 2 4 mph 1014.5mb 70f
12:40am 4ft  -  7s  -  4 mph 1014.5mb 71f
12:30am  -   -   -  2 2 mph 1014.5mb 71f
12:20am  -   -   -  2 4 mph 1014.6mb 71f
12:10am  -   -   -  2 2 mph 1014.6mb 71f
12:00am  -   -   -   -  2 mph 1014.6mb 71f
Wed 07/19 11:50pm 3.5ft 11s 7s 2 4 mph 1014.6mb 71f
11:40pm 3.5ft  -  7s 2 4 mph 1014.6mb 71f
11:30pm  -   -   -  2 4 mph 1014.5mb 71f
11:20pm  -   -   -  2 4 mph 1014.5mb 71f
11:10pm  -   -   -  4 4 mph 1014.5mb 71f
11:00pm  -   -   -  4 7 mph 1014.5mb 71f
10:50pm 3.5ft 11s 7s 4 4 mph 1014.5mb 71f
10:40pm  -   -   -  4 4 mph 1014.5mb 71f
10:30pm  -   -   -  4 4 mph 1014.5mb 71f
10:20pm  -   -   -  2 4 mph 1014.5mb 71f
10:10pm  -   -   -  2 4 mph 1014.5mb 71f
10:00pm  -   -   -  2 4 mph 1014.5mb 71f
9:50pm 3.5ft 11s 7s 2 4 mph 1014.5mb 71f
9:40pm 3.5ft  -  7s  -  2 mph 1014.4mb 71f
9:30pm  -   -   -   -  2 mph 1014.3mb -
9:20pm  -   -   -   -  2 mph 1014mb 71f
9:10pm  -   -   -   -  2 mph 1014mb 71f
9:00pm  -   -   -  2 4 mph 1014mb 71f
8:50pm 3.5ft 11s 7s 2 4 mph 1013.9mb 72f
8:40pm  -   -   -  4 4 mph 1013.5mb 72f
8:30pm  -   -   -  4 7 mph 1013.5mb 71f
8:20pm  -   -   -  2 7 mph 1013.5mb 71f
8:10pm  -   -   -  4 9 mph 1013.5mb 71f
8:00pm  -   -   -  4 9 mph 1013.5mb 71f
7:50pm 3.5ft 10s 7s 4 9 mph 1013.5mb -
7:40pm 3.5ft  -  7s 7 9 mph 1013.5mb 71f
7:30pm  -   -   -  7 11 mph 1013.4mb 72f
7:20pm  -   -   -  9 11 mph 1013.1mb 72f
7:10pm  -   -   -  9 11 mph 1013mb 72f
7:00pm  -   -   -  9 11 mph 1013mb 71f
6:50pm 3.5ft 11s 7s 9 11 mph 1013mb 71f
6:40pm 3.5ft  -  7s 9 11 mph 1013mb 72f
6:30pm  -   -   -  9 13 mph 1013mb 72f
6:20pm  -   -   -  9 11 mph 1013mb 72f
6:10pm  -   -   -  9 9 mph 1013mb 72f
6:00pm  -   -   -  9 11 mph 1013mb 72f
5:50pm 3.5ft 11s 8s 7 9 mph 1013.1mb 72f
5:40pm 3.5ft  -  8s 9 11 mph 1013.3mb 72f
5:30pm  -   -   -  9 11 mph 1013.1mb 72f
5:20pm  -   -   -  9 11 mph 1013.1mb 72f
5:10pm  -   -   -  9 11 mph 1013.4mb 72f
5:00pm  -   -   -  9 11 mph 1013.4mb 72f
4:50pm 3.5ft 12s 7s 9 11 mph 1013.5mb 72f
4:40pm  -   -   -  9 11 mph 1013.5mb 72f
4:20pm  -   -   -  7 11 mph 1013.8mb 72f
4:10pm  -   -   -  7 9 mph 1013.9mb 73f
4:00pm  -   -   -  9 11 mph 1013.9mb 73f
3:50pm 3.5ft 11s 7s 9 11 mph 1014mb 73f
3:40pm 3.5ft  -  7s 7 9 mph 1014.1mb 73f
3:30pm  -   -   -  7 9 mph 1014.4mb 73f
3:20pm  -   -   -  7 9 mph 1014.5mb 73f
3:10pm  -   -   -  7 9 mph 1014.5mb 73f
3:00pm  -   -   -  7 9 mph 1014.5mb 73f
2:50pm 3.5ft 11s 8s 7 11 mph 1014.6mb 73f
2:40pm 3.5ft  -  8s 7 9 mph 1014.6mb 73f
2:30pm  -   -   -  7 9 mph 1014.8mb 73f
2:20pm  -   -   -  7 9 mph 1014.9mb 73f
2:10pm  -   -   -  7 9 mph 1015mb 73f
2:00pm  -   -   -  4 7 mph 1015.1mb 72f
1:50pm 3.5ft 11s 8s 4 9 mph 1015.1mb 72f
1:40pm 3.5ft  -  8s 4 7 mph 1015.3mb 72f
1:30pm  -   -   -  4 9 mph 1015.4mb 72f
1:20pm  -   -   -  4 7 mph 1015.4mb 72f
1:10pm  -   -   -  4 7 mph 1015.5mb 72f
1:00pm  -   -   -  4 7 mph 1015.5mb 72f
12:50pm 3.5ft 11s 8s 4 4 mph 1015.5mb 72f
12:40pm 3.5ft  -  8s 2 4 mph 1015.6mb 72f
12:30pm  -   -   -  2 4 mph 1015.6mb 72f
12:20pm  -   -   -  2 4 mph 1015.6mb 72f
12:10pm  -   -   -  2 4 mph 1015.8mb 72f
12:00pm  -   -   -  2 4 mph 1015.9mb 72f
11:50am 3.5ft 10s 8s 2 4 mph 1015.8mb 71f
11:40am 3.5ft  -  8s 2 4 mph 1015.9mb 71f
11:30am  -   -   -  4 4 mph 1015.9mb 72f
11:20am  -   -   -  2 7 mph 1016mb 72f
11:10am  -   -   -  2 7 mph 1016mb 72f
11:00am  -   -   -  4 4 mph 1016mb 72f
10:50am 3.5ft 11s 8s 4 4 mph 1016mb 72f
10:40am 3.5ft  -  8s 4 7 mph 1016mb 72f
10:30am  -   -   -  4 7 mph 1016mb 71f
10:20am  -   -   -  4 7 mph 1016mb 71f
10:10am  -   -   -  4 9 mph 1016mb 71f
10:00am  -   -   -  4 9 mph 1015.9mb 71f
9:50am 3.5ft 11s 8s 4 7 mph 1015.8mb 71f
9:40am 3.5ft  -  8s 7 11 mph 1015.6mb 71f
9:30am  -   -   -  7 9 mph 1015.6mb 71f
9:20am  -   -   -  7 11 mph 1015.5mb 71f
9:10am  -   -   -  4 9 mph 1015.5mb 71f
9:00am  -   -   -  7 9 mph 1015.5mb 71f
8:50am 3.5ft 11s 8s 4 9 mph 1015.4mb 71f
8:40am 3.5ft  -  8s 4 9 mph 1015.3mb 71f
8:30am  -   -   -  4 7 mph 1015.1mb 71f
8:20am  -   -   -  4 7 mph 1015mb 71f
8:10am  -   -   -  2 7 mph 1015mb 71f
8:00am  -   -   -  2 4 mph 1014.8mb 71f
7:50am 3.5ft 11s 8s 2 4 mph 1014.5mb 71f
7:40am 3.5ft  -  8s  -  4 mph 1014.5mb 71f
7:30am  -   -   -  2 7 mph 1014.5mb 71f
7:20am  -   -   -  2 4 mph 1014.4mb 71f
7:10am  -   -   -   -  2 mph 1014.3mb 71f
7:00am  -   -   -  2 4 mph 1014.3mb 71f
6:50am 3.5ft 11s 8s  -  4 mph 1014mb 71f
6:40am 3.5ft  -  8s 4 7 mph 1014.3mb 71f
6:30am  -   -   -  7 9 mph 1014.3mb 71f
6:20am  -   -   -  7 9 mph 1014.3mb 71f
6:10am  -   -   -  4 9 mph 1014mb 71f
6:00am  -   -   -  4 7 mph 1014mb 71f
5:50am 3.5ft 11s 7s 4 9 mph 1014mb 71f
5:40am  -   -   -  4 7 mph 1014mb 71f
5:30am  -   -   -  4 7 mph 1014mb 72f
5:20am  -   -   -  4 7 mph 1013.9mb 72f
5:10am  -   -   -  4 7 mph 1014mb 72f
5:00am  -   -   -  4 7 mph 1013.9mb 72f
4:50am 3.5ft 11s 6s 7 9 mph 1013.8mb 72f
4:40am 3.5ft  -  6s 4 9 mph 1013.8mb 72f
4:30am  -   -   -  4 9 mph 1013.6mb 72f
4:20am  -   -   -  7 9 mph 1013.5mb 72f
4:10am  -   -   -  4 9 mph 1013.6mb 72f
4:00am  -   -   -  4 9 mph 1013.5mb 72f
3:50am 3.5ft 11s 7s 4 9 mph 1013.5mb 72f
3:40am 3.5ft  -  7s 7 9 mph 1013.5mb 72f
3:30am  -   -   -  4 9 mph 1013.5mb 72f
3:20am  -   -   -  4 9 mph 1013.5mb 72f
3:10am  -   -   -  7 9 mph 1013.5mb 72f
3:00am  -   -   -  7 9 mph 1013.5mb 72f
2:50am 3.5ft 11s 6s 7 9 mph 1013.5mb 72f
2:40am 3.5ft  -  6s 7 11 mph 1013.6mb 72f
2:30am  -   -   -  7 11 mph 1013.4mb 72f
2:20am  -   -   -  7 11 mph 1013.5mb 72f
2:10am  -   -   -  7 11 mph 1013.6mb 71f
2:00am  -   -   -  7 9 mph 1013.6mb 71f
1:50am 3.5ft 11s 6s 7 9 mph 1013.8mb 71f
1:40am  -   -   -  7 9 mph 1014mb 71f
1:30am  -   -   -  7 11 mph 1014.1mb 71f
1:20am  -   -   -  7 11 mph 1014.1mb 71f
1:10am  -   -   -  7 11 mph 1014mb 71f
1:00am  -   -   -  4 7 mph 1014mb 71f
12:50am 3.5ft 11s 6s 7 9 mph 1014mb 71f
12:40am  -   -   -  7 11 mph 1014mb 72f
12:30am  -   -   -  4 9 mph 1014mb 72f
12:20am  -   -   -  7 11 mph 1014mb 72f
12:10am  -   -   -  7 11 mph 1013.9mb 71f
12:00am  -   -   -  7 9 mph 1014mb 71f
Tue 07/18 11:50pm 3.5ft 11s 6s 7 11 mph 1014mb 72f
11:40pm  -   -   -  4 9 mph 1014.3mb 72f
11:30pm  -   -   -  7 11 mph 1014mb 72f
11:20pm  -   -   -  7 9 mph 1014.1mb 72f
11:10pm  -   -   -  7 9 mph 1014.4mb 72f
11:00pm  -   -   -  4 9 mph 1014.3mb 72f
10:50pm 4ft 11s 7s 7 9 mph 1014.1mb 72f
10:40pm  -   -   -  7 9 mph 1014.3mb 72f
10:30pm  -   -   -  4 9 mph 1014.3mb 71f
10:20pm  -   -   -  7 9 mph 1014.1mb 71f